Norman Y. Mineta San Jose International Airport
KSJC : rendu visible

Aérodrome :











RETROUVEZ-NOUS SUR...

 
LOGIN :

S'inscrire | Disclaimer

   EN    FR    IT 

 









Légende :    VFR   VFR Marginal   IFR   IFR Intensif   IFR Très Intensif
Visi : 
Plafond : 
>= 8 km
>= 3000ft
5 à 8 km
1000 à 3000 ft
1500m à 5 km
500 à 1000 ft
800 à 1500m
200 à 500 ft
< 800m
< 200 ft
Symboles :   Orages  Brouillard  Fortes neiges  Fortes précipitations  Vent > 20 kt






- Altitude de l'aérodrome : 62 ft
- Code IATA : SJC


KSJC - Norman Y. Mineta San Jose International

DERNIER METAR :
  • 271053Z AUTO 28003KT 10SM CLR 22/09 A2985 RMK AO2 SLP107 T02170089

METARs EXPIRÉS :
  • 270953Z AUTO 14006KT 10SM CLR 23/09 A2985 RMK AO2 SLP108 T02280089
  • 270853Z AUTO 14006KT 10SM CLR 23/09 A2986 RMK AO2 SLP111 T02280089 50000

TAF KSJC
Valide du 27 à 12h jusqu'au 28 à 12h UTC


271120Z 2712/2812 12005KT P6SM SKC
FM272000 31006KT P6SM SKC
FM272200 31013KT P6SM SKC
FM280400 29006KT P6SM SKC
FM281000 VRB03KT P6SM SKC
FIR KZOA / Amérique du Nord



MET'MAP, la Météo Aéronautique d'un coup d'oeil ! - Copyright ORBIFLY Décembre 2007 - Disclaimer

ORBIFLY MET'MAP TEAM :

Programmation & Développement : Alexandra Zaïnal
Sur une idée originale de : Baudouin d'Aumeries
Assistance à la programmation : Marc-Olivier Méhu
Soutien technique & logistique : Manuel Goepfert

Contact : metmap@orbifly.com




SOURCES & CREDITS :

   NOAA       Earth
Advisory